sensor_id;sensor_type;location;lat;lon;timestamp;P1;durP1;ratioP1;P2;durP2;ratioP2
71769;SDS011;66386;52.122;5.420;2023-02-03T00:01:50;9.10;;;1.37;;
71769;SDS011;66386;52.122;5.420;2023-02-03T00:04:17;4.13;;;1.30;;
71769;SDS011;66386;52.122;5.420;2023-02-03T00:06:43;7.55;;;1.20;;
71769;SDS011;66386;52.122;5.420;2023-02-03T00:09:10;5.13;;;1.10;;
71769;SDS011;66386;52.122;5.420;2023-02-03T00:11:36;11.98;;;1.42;;
71769;SDS011;66386;52.122;5.420;2023-02-03T00:14:03;11.63;;;1.30;;
71769;SDS011;66386;52.122;5.420;2023-02-03T00:16:30;6.20;;;1.10;;
71769;SDS011;66386;52.122;5.420;2023-02-03T00:18:57;5.70;;;1.20;;
71769;SDS011;66386;52.122;5.420;2023-02-03T00:21:23;4.50;;;1.00;;
71769;SDS011;66386;52.122;5.420;2023-02-03T00:23:50;8.90;;;1.70;;
71769;SDS011;66386;52.122;5.420;2023-02-03T00:26:17;7.57;;;1.93;;
71769;SDS011;66386;52.122;5.420;2023-02-03T00:28:43;11.38;;;1.35;;
71769;SDS011;66386;52.122;5.420;2023-02-03T00:31:15;8.02;;;1.45;;
71769;SDS011;66386;52.122;5.420;2023-02-03T00:33:43;7.43;;;1.20;;
71769;SDS011;66386;52.122;5.420;2023-02-03T00:36:10;10.07;;;1.00;;
71769;SDS011;66386;52.122;5.420;2023-02-03T00:38:37;6.60;;;1.10;;
71769;SDS011;66386;52.122;5.420;2023-02-03T00:41:03;5.15;;;1.02;;
71769;SDS011;66386;52.122;5.420;2023-02-03T00:43:30;9.15;;;1.20;;
71769;SDS011;66386;52.122;5.420;2023-02-03T00:45:56;9.85;;;1.00;;
71769;SDS011;66386;52.122;5.420;2023-02-03T00:48:23;4.72;;;0.80;;
71769;SDS011;66386;52.122;5.420;2023-02-03T00:50:50;6.97;;;1.53;;
71769;SDS011;66386;52.122;5.420;2023-02-03T00:53:16;6.72;;;1.05;;
71769;SDS011;66386;52.122;5.420;2023-02-03T00:55:43;5.65;;;1.00;;
71769;SDS011;66386;52.122;5.420;2023-02-03T00:58:09;7.95;;;1.05;;
71769;SDS011;66386;52.122;5.420;2023-02-03T01:00:36;8.63;;;1.80;;
71769;SDS011;66386;52.122;5.420;2023-02-03T01:03:02;6.77;;;1.37;;
71769;SDS011;66386;52.122;5.420;2023-02-03T01:05:29;12.20;;;1.85;;
71769;SDS011;66386;52.122;5.420;2023-02-03T01:07:55;12.63;;;1.30;;
71769;SDS011;66386;52.122;5.420;2023-02-03T01:10:22;8.73;;;1.25;;
71769;SDS011;66386;52.122;5.420;2023-02-03T01:12:49;5.47;;;0.73;;
71769;SDS011;66386;52.122;5.420;2023-02-03T01:15:15;11.27;;;1.03;;
71769;SDS011;66386;52.122;5.420;2023-02-03T01:17:42;8.65;;;0.85;;
71769;SDS011;66386;52.122;5.420;2023-02-03T01:20:08;4.63;;;1.20;;
71769;SDS011;66386;52.122;5.420;2023-02-03T01:22:37;5.53;;;1.00;;
71769;SDS011;66386;52.122;5.420;2023-02-03T01:25:03;5.22;;;1.20;;
71769;SDS011;66386;52.122;5.420;2023-02-03T01:27:31;3.97;;;0.73;;
71769;SDS011;66386;52.122;5.420;2023-02-03T01:29:58;6.45;;;0.95;;
71769;SDS011;66386;52.122;5.420;2023-02-03T01:32:25;7.97;;;0.98;;
71769;SDS011;66386;52.122;5.420;2023-02-03T01:34:52;6.47;;;0.73;;
71769;SDS011;66386;52.122;5.420;2023-02-03T01:37:18;6.95;;;1.15;;
71769;SDS011;66386;52.122;5.420;2023-02-03T01:39:44;7.60;;;1.60;;
71769;SDS011;66386;52.122;5.420;2023-02-03T01:42:11;4.13;;;0.90;;
71769;SDS011;66386;52.122;5.420;2023-02-03T01:44:43;4.10;;;0.82;;
71769;SDS011;66386;52.122;5.420;2023-02-03T01:47:34;3.00;;;0.90;;
71769;SDS011;66386;52.122;5.420;2023-02-03T01:52:46;7.27;;;0.80;;
71769;SDS011;66386;52.122;5.420;2023-02-03T01:55:23;8.38;;;1.13;;
71769;SDS011;66386;52.122;5.420;2023-02-03T01:58:06;3.10;;;0.70;;
71769;SDS011;66386;52.122;5.420;2023-02-03T02:00:37;5.95;;;0.75;;
71769;SDS011;66386;52.122;5.420;2023-02-03T02:03:04;3.40;;;0.60;;
71769;SDS011;66386;52.122;5.420;2023-02-03T02:05:37;6.23;;;1.03;;
71769;SDS011;66386;52.122;5.420;2023-02-03T02:08:11;9.98;;;1.30;;
71769;SDS011;66386;52.122;5.420;2023-02-03T02:10:39;6.13;;;0.60;;
71769;SDS011;66386;52.122;5.420;2023-02-03T02:13:06;5.20;;;0.70;;
71769;SDS011;66386;52.122;5.420;2023-02-03T02:15:38;7.53;;;0.57;;
71769;SDS011;66386;52.122;5.420;2023-02-03T02:18:10;7.70;;;0.70;;
71769;SDS011;66386;52.122;5.420;2023-02-03T02:20:54;7.78;;;0.90;;
71769;SDS011;66386;52.122;5.420;2023-02-03T02:29:58;10.93;;;0.70;;
71769;SDS011;66386;52.122;5.420;2023-02-03T02:32:47;5.30;;;0.70;;
71769;SDS011;66386;52.122;5.420;2023-02-03T02:38:04;16.65;;;1.08;;
71769;SDS011;66386;52.122;5.420;2023-02-03T02:40:55;5.47;;;0.60;;
71769;SDS011;66386;52.122;5.420;2023-02-03T02:43:44;4.78;;;0.90;;
71769;SDS011;66386;52.122;5.420;2023-02-03T02:46:18;5.57;;;0.50;;
71769;SDS011;66386;52.122;5.420;2023-02-03T02:49:00;4.75;;;0.85;;
71769;SDS011;66386;52.122;5.420;2023-02-03T02:51:32;3.72;;;0.50;;
71769;SDS011;66386;52.122;5.420;2023-02-03T02:54:01;2.80;;;0.45;;
71769;SDS011;66386;52.122;5.420;2023-02-03T02:56:30;4.05;;;0.88;;
71769;SDS011;66386;52.122;5.420;2023-02-03T02:58:59;5.27;;;0.53;;
71769;SDS011;66386;52.122;5.420;2023-02-03T03:01:28;4.25;;;0.82;;
71769;SDS011;66386;52.122;5.420;2023-02-03T03:03:55;6.22;;;0.50;;
71769;SDS011;66386;52.122;5.420;2023-02-03T03:06:25;7.63;;;0.70;;
71769;SDS011;66386;52.122;5.420;2023-02-03T03:09:10;4.82;;;0.40;;
71769;SDS011;66386;52.122;5.420;2023-02-03T03:11:47;4.57;;;0.50;;
71769;SDS011;66386;52.122;5.420;2023-02-03T03:14:17;2.75;;;0.50;;
71769;SDS011;66386;52.122;5.420;2023-02-03T03:16:47;5.78;;;0.77;;
71769;SDS011;66386;52.122;5.420;2023-02-03T03:19:23;4.60;;;0.40;;
71769;SDS011;66386;52.122;5.420;2023-02-03T03:21:57;4.43;;;0.60;;
71769;SDS011;66386;52.122;5.420;2023-02-03T03:24:28;4.10;;;0.60;;
71769;SDS011;66386;52.122;5.420;2023-02-03T03:27:20;3.63;;;0.75;;
71769;SDS011;66386;52.122;5.420;2023-02-03T03:32:27;3.25;;;0.60;;
71769;SDS011;66386;52.122;5.420;2023-02-03T03:34:58;2.03;;;0.40;;
71769;SDS011;66386;52.122;5.420;2023-02-03T03:37:34;10.00;;;0.57;;
71769;SDS011;66386;52.122;5.420;2023-02-03T03:40:09;5.53;;;0.40;;
71769;SDS011;66386;52.122;5.420;2023-02-03T03:42:44;2.20;;;0.43;;
71769;SDS011;66386;52.122;5.420;2023-02-03T03:48:13;7.18;;;0.70;;
71769;SDS011;66386;52.122;5.420;2023-02-03T03:51:03;5.80;;;1.00;;
71769;SDS011;66386;52.122;5.420;2023-02-03T03:53:31;3.42;;;0.50;;
71769;SDS011;66386;52.122;5.420;2023-02-03T03:56:00;4.63;;;0.75;;
71769;SDS011;66386;52.122;5.420;2023-02-03T03:58:31;4.07;;;0.88;;
71769;SDS011;66386;52.122;5.420;2023-02-03T04:01:01;6.47;;;0.55;;
71769;SDS011;66386;52.122;5.420;2023-02-03T04:03:32;6.10;;;0.80;;
71769;SDS011;66386;52.122;5.420;2023-02-03T04:06:04;4.35;;;0.40;;
71769;SDS011;66386;52.122;5.420;2023-02-03T04:08:31;5.72;;;0.57;;
71769;SDS011;66386;52.122;5.420;2023-02-03T04:10:58;4.03;;;0.63;;
71769;SDS011;66386;52.122;5.420;2023-02-03T04:13:24;2.35;;;0.65;;
71769;SDS011;66386;52.122;5.420;2023-02-03T04:15:51;2.47;;;0.63;;
71769;SDS011;66386;52.122;5.420;2023-02-03T04:18:17;2.65;;;0.52;;
71769;SDS011;66386;52.122;5.420;2023-02-03T04:20:43;3.97;;;0.40;;
71769;SDS011;66386;52.122;5.420;2023-02-03T04:23:10;3.95;;;0.40;;
71769;SDS011;66386;52.122;5.420;2023-02-03T04:25:36;3.28;;;0.50;;
71769;SDS011;66386;52.122;5.420;2023-02-03T04:28:03;3.70;;;0.40;;
71769;SDS011;66386;52.122;5.420;2023-02-03T04:30:31;4.47;;;0.57;;
71769;SDS011;66386;52.122;5.420;2023-02-03T04:32:57;4.72;;;0.60;;
71769;SDS011;66386;52.122;5.420;2023-02-03T04:35:24;1.25;;;0.20;;
71769;SDS011;66386;52.122;5.420;2023-02-03T04:37:51;4.85;;;0.47;;
71769;SDS011;66386;52.122;5.420;2023-02-03T04:40:17;1.30;;;0.30;;
71769;SDS011;66386;52.122;5.420;2023-02-03T04:42:44;3.65;;;0.70;;
71769;SDS011;66386;52.122;5.420;2023-02-03T04:45:10;5.45;;;0.70;;
71769;SDS011;66386;52.122;5.420;2023-02-03T04:47:38;3.80;;;0.40;;
71769;SDS011;66386;52.122;5.420;2023-02-03T04:50:05;3.22;;;0.40;;
71769;SDS011;66386;52.122;5.420;2023-02-03T04:52:32;2.90;;;0.40;;
71769;SDS011;66386;52.122;5.420;2023-02-03T04:54:58;1.70;;;0.52;;
71769;SDS011;66386;52.122;5.420;2023-02-03T04:57:25;2.78;;;0.32;;
71769;SDS011;66386;52.122;5.420;2023-02-03T04:59:51;2.08;;;0.70;;
71769;SDS011;66386;52.122;5.420;2023-02-03T05:02:18;8.75;;;0.75;;
71769;SDS011;66386;52.122;5.420;2023-02-03T05:04:44;3.20;;;0.30;;
71769;SDS011;66386;52.122;5.420;2023-02-03T05:07:11;3.72;;;0.57;;
71769;SDS011;66386;52.122;5.420;2023-02-03T05:09:37;3.20;;;0.52;;
71769;SDS011;66386;52.122;5.420;2023-02-03T05:12:04;4.15;;;0.55;;
71769;SDS011;66386;52.122;5.420;2023-02-03T05:14:30;3.65;;;0.20;;
71769;SDS011;66386;52.122;5.420;2023-02-03T05:16:57;3.70;;;0.40;;
71769;SDS011;66386;52.122;5.420;2023-02-03T05:19:23;4.18;;;0.45;;
71769;SDS011;66386;52.122;5.420;2023-02-03T05:21:50;4.25;;;0.40;;
71769;SDS011;66386;52.122;5.420;2023-02-03T05:24:16;5.03;;;0.50;;
71769;SDS011;66386;52.122;5.420;2023-02-03T05:26:43;2.03;;;0.38;;
71769;SDS011;66386;52.122;5.420;2023-02-03T05:29:09;2.80;;;0.67;;
71769;SDS011;66386;52.122;5.420;2023-02-03T05:31:37;2.65;;;0.88;;
71769;SDS011;66386;52.122;5.420;2023-02-03T05:34:03;2.90;;;0.43;;
71769;SDS011;66386;52.122;5.420;2023-02-03T05:36:30;5.00;;;0.20;;
71769;SDS011;66386;52.122;5.420;2023-02-03T05:38:57;16.23;;;3.10;;
71769;SDS011;66386;52.122;5.420;2023-02-03T05:41:23;3.27;;;0.30;;
71769;SDS011;66386;52.122;5.420;2023-02-03T05:44:08;5.63;;;1.23;;
71769;SDS011;66386;52.122;5.420;2023-02-03T05:46:35;3.72;;;0.82;;
71769;SDS011;66386;52.122;5.420;2023-02-03T05:49:01;3.55;;;0.30;;
71769;SDS011;66386;52.122;5.420;2023-02-03T05:51:28;5.00;;;0.60;;
71769;SDS011;66386;52.122;5.420;2023-02-03T05:53:54;3.20;;;0.97;;
71769;SDS011;66386;52.122;5.420;2023-02-03T05:56:21;6.35;;;0.73;;
71769;SDS011;66386;52.122;5.420;2023-02-03T05:58:47;10.68;;;1.45;;
71769;SDS011;66386;52.122;5.420;2023-02-03T06:01:16;4.45;;;0.60;;
71769;SDS011;66386;52.122;5.420;2023-02-03T06:03:44;2.17;;;0.30;;
71769;SDS011;66386;52.122;5.420;2023-02-03T06:06:11;7.97;;;0.50;;
71769;SDS011;66386;52.122;5.420;2023-02-03T06:08:38;4.80;;;0.70;;
71769;SDS011;66386;52.122;5.420;2023-02-03T06:11:04;3.97;;;0.70;;
71769;SDS011;66386;52.122;5.420;2023-02-03T06:13:31;2.10;;;0.38;;
71769;SDS011;66386;52.122;5.420;2023-02-03T06:15:58;5.95;;;0.75;;
71769;SDS011;66386;52.122;5.420;2023-02-03T06:18:24;5.07;;;0.50;;
71769;SDS011;66386;52.122;5.420;2023-02-03T06:20:51;4.93;;;0.65;;
71769;SDS011;66386;52.122;5.420;2023-02-03T06:23:17;3.28;;;0.40;;
71769;SDS011;66386;52.122;5.420;2023-02-03T06:25:46;3.38;;;0.52;;
71769;SDS011;66386;52.122;5.420;2023-02-03T06:28:13;4.53;;;0.60;;
71769;SDS011;66386;52.122;5.420;2023-02-03T06:30:39;5.80;;;0.47;;
71769;SDS011;66386;52.122;5.420;2023-02-03T06:33:06;6.80;;;1.08;;
71769;SDS011;66386;52.122;5.420;2023-02-03T06:35:33;4.50;;;0.90;;
71769;SDS011;66386;52.122;5.420;2023-02-03T06:37:59;3.70;;;0.40;;
71769;SDS011;66386;52.122;5.420;2023-02-03T06:40:26;3.72;;;0.47;;
71769;SDS011;66386;52.122;5.420;2023-02-03T06:42:53;5.80;;;0.63;;
71769;SDS011;66386;52.122;5.420;2023-02-03T06:45:19;7.45;;;0.40;;
71769;SDS011;66386;52.122;5.420;2023-02-03T06:47:46;4.97;;;0.55;;
71769;SDS011;66386;52.122;5.420;2023-02-03T06:50:13;7.38;;;0.70;;
71769;SDS011;66386;52.122;5.420;2023-02-03T06:52:41;3.47;;;0.50;;
71769;SDS011;66386;52.122;5.420;2023-02-03T06:55:08;5.37;;;0.50;;
71769;SDS011;66386;52.122;5.420;2023-02-03T06:57:41;2.88;;;0.40;;
71769;SDS011;66386;52.122;5.420;2023-02-03T07:00:09;8.50;;;0.50;;
71769;SDS011;66386;52.122;5.420;2023-02-03T07:02:39;4.95;;;0.82;;
71769;SDS011;66386;52.122;5.420;2023-02-03T07:05:06;5.85;;;1.02;;
71769;SDS011;66386;52.122;5.420;2023-02-03T07:07:33;4.63;;;0.33;;
71769;SDS011;66386;52.122;5.420;2023-02-03T07:10:00;6.07;;;0.75;;
71769;SDS011;66386;52.122;5.420;2023-02-03T07:12:27;6.22;;;0.45;;
71769;SDS011;66386;52.122;5.420;2023-02-03T07:14:53;4.93;;;0.55;;
71769;SDS011;66386;52.122;5.420;2023-02-03T07:17:20;4.18;;;0.77;;
71769;SDS011;66386;52.122;5.420;2023-02-03T07:19:46;3.87;;;0.70;;
71769;SDS011;66386;52.122;5.420;2023-02-03T07:22:13;5.57;;;0.65;;
71769;SDS011;66386;52.122;5.420;2023-02-03T07:24:39;6.78;;;0.73;;
71769;SDS011;66386;52.122;5.420;2023-02-03T07:27:06;1.70;;;0.30;;
71769;SDS011;66386;52.122;5.420;2023-02-03T07:29:32;4.45;;;0.60;;
71769;SDS011;66386;52.122;5.420;2023-02-03T07:31:58;7.03;;;0.60;;
71769;SDS011;66386;52.122;5.420;2023-02-03T07:34:27;5.72;;;0.47;;
71769;SDS011;66386;52.122;5.420;2023-02-03T07:36:55;4.85;;;0.77;;
71769;SDS011;66386;52.122;5.420;2023-02-03T07:39:22;6.15;;;0.80;;
71769;SDS011;66386;52.122;5.420;2023-02-03T07:41:48;4.88;;;0.60;;
71769;SDS011;66386;52.122;5.420;2023-02-03T07:44:15;3.00;;;0.43;;
71769;SDS011;66386;52.122;5.420;2023-02-03T07:46:41;3.10;;;0.65;;
71769;SDS011;66386;52.122;5.420;2023-02-03T07:49:10;3.28;;;0.50;;
71769;SDS011;66386;52.122;5.420;2023-02-03T07:51:37;5.38;;;0.63;;
71769;SDS011;66386;52.122;5.420;2023-02-03T07:54:03;3.83;;;0.68;;
71769;SDS011;66386;52.122;5.420;2023-02-03T07:56:30;2.07;;;0.30;;
71769;SDS011;66386;52.122;5.420;2023-02-03T07:58:58;7.45;;;0.90;;
71769;SDS011;66386;52.122;5.420;2023-02-03T08:01:25;5.05;;;0.80;;
71769;SDS011;66386;52.122;5.420;2023-02-03T08:03:52;7.60;;;0.55;;
71769;SDS011;66386;52.122;5.420;2023-02-03T08:06:20;5.43;;;0.65;;
71769;SDS011;66386;52.122;5.420;2023-02-03T08:08:47;5.13;;;0.90;;
71769;SDS011;66386;52.122;5.420;2023-02-03T08:11:13;4.38;;;0.52;;
71769;SDS011;66386;52.122;5.420;2023-02-03T08:13:40;9.68;;;0.60;;
71769;SDS011;66386;52.122;5.420;2023-02-03T08:16:06;7.32;;;1.00;;
71769;SDS011;66386;52.122;5.420;2023-02-03T08:18:33;5.00;;;0.50;;
71769;SDS011;66386;52.122;5.420;2023-02-03T08:20:59;7.27;;;0.90;;
71769;SDS011;66386;52.122;5.420;2023-02-03T08:23:28;6.57;;;0.80;;
71769;SDS011;66386;52.122;5.420;2023-02-03T08:25:55;4.57;;;0.65;;
71769;SDS011;66386;52.122;5.420;2023-02-03T08:28:21;6.40;;;1.15;;
71769;SDS011;66386;52.122;5.420;2023-02-03T08:30:48;10.80;;;1.25;;
71769;SDS011;66386;52.122;5.420;2023-02-03T08:33:14;4.83;;;0.80;;
71769;SDS011;66386;52.122;5.420;2023-02-03T08:35:44;5.55;;;1.17;;
71769;SDS011;66386;52.122;5.420;2023-02-03T08:38:11;3.83;;;0.93;;
71769;SDS011;66386;52.122;5.420;2023-02-03T08:40:37;4.68;;;0.93;;
71769;SDS011;66386;52.122;5.420;2023-02-03T08:43:04;8.73;;;0.80;;
71769;SDS011;66386;52.122;5.420;2023-02-03T08:45:30;6.70;;;1.10;;
71769;SDS011;66386;52.122;5.420;2023-02-03T08:47:57;6.75;;;0.80;;
71769;SDS011;66386;52.122;5.420;2023-02-03T08:50:24;5.15;;;0.70;;
71769;SDS011;66386;52.122;5.420;2023-02-03T08:52:51;7.03;;;0.73;;
71769;SDS011;66386;52.122;5.420;2023-02-03T08:55:17;5.10;;;0.60;;
71769;SDS011;66386;52.122;5.420;2023-02-03T08:57:44;5.60;;;0.87;;
71769;SDS011;66386;52.122;5.420;2023-02-03T09:00:11;5.32;;;1.05;;
71769;SDS011;66386;52.122;5.420;2023-02-03T09:02:38;4.22;;;1.02;;
71769;SDS011;66386;52.122;5.420;2023-02-03T09:05:04;8.90;;;0.70;;
71769;SDS011;66386;52.122;5.420;2023-02-03T09:07:31;5.43;;;0.85;;
71769;SDS011;66386;52.122;5.420;2023-02-03T09:09:58;4.57;;;0.70;;
71769;SDS011;66386;52.122;5.420;2023-02-03T09:12:24;5.35;;;1.02;;
71769;SDS011;66386;52.122;5.420;2023-02-03T09:14:51;5.25;;;0.50;;
71769;SDS011;66386;52.122;5.420;2023-02-03T09:17:17;6.03;;;0.75;;
71769;SDS011;66386;52.122;5.420;2023-02-03T09:19:44;5.20;;;0.90;;
71769;SDS011;66386;52.122;5.420;2023-02-03T09:22:10;3.93;;;0.50;;
71769;SDS011;66386;52.122;5.420;2023-02-03T09:24:38;6.22;;;0.98;;
71769;SDS011;66386;52.122;5.420;2023-02-03T09:27:05;7.13;;;0.73;;
71769;SDS011;66386;52.122;5.420;2023-02-03T09:29:31;8.40;;;0.77;;
71769;SDS011;66386;52.122;5.420;2023-02-03T09:31:58;5.30;;;1.00;;
71769;SDS011;66386;52.122;5.420;2023-02-03T09:34:25;4.47;;;0.93;;
71769;SDS011;66386;52.122;5.420;2023-02-03T09:36:51;6.82;;;0.93;;
71769;SDS011;66386;52.122;5.420;2023-02-03T09:39:18;4.97;;;0.98;;
71769;SDS011;66386;52.122;5.420;2023-02-03T09:47:26;10.63;;;0.83;;
71769;SDS011;66386;52.122;5.420;2023-02-03T09:49:58;6.22;;;0.73;;
71769;SDS011;66386;52.122;5.420;2023-02-03T09:52:31;3.53;;;0.60;;
71769;SDS011;66386;52.122;5.420;2023-02-03T09:55:04;9.63;;;0.95;;
71769;SDS011;66386;52.122;5.420;2023-02-03T09:57:43;9.07;;;1.05;;
71769;SDS011;66386;52.122;5.420;2023-02-03T10:00:20;6.53;;;0.80;;
71769;SDS011;66386;52.122;5.420;2023-02-03T10:02:55;4.90;;;1.05;;
71769;SDS011;66386;52.122;5.420;2023-02-03T10:08:02;5.07;;;1.02;;
71769;SDS011;66386;52.122;5.420;2023-02-03T10:11:11;6.70;;;0.93;;
71769;SDS011;66386;52.122;5.420;2023-02-03T10:16:35;7.43;;;0.90;;
71769;SDS011;66386;52.122;5.420;2023-02-03T10:19:17;7.22;;;1.17;;
71769;SDS011;66386;52.122;5.420;2023-02-03T10:21:52;3.33;;;1.13;;
71769;SDS011;66386;52.122;5.420;2023-02-03T10:27:23;5.67;;;1.00;;
71769;SDS011;66386;52.122;5.420;2023-02-03T10:29:58;3.03;;;0.47;;
71769;SDS011;66386;52.122;5.420;2023-02-03T10:32:29;5.68;;;0.70;;
71769;SDS011;66386;52.122;5.420;2023-02-03T10:34:56;5.72;;;0.82;;
71769;SDS011;66386;52.122;5.420;2023-02-03T10:37:27;4.07;;;0.50;;
71769;SDS011;66386;52.122;5.420;2023-02-03T10:39:57;6.33;;;0.87;;
71769;SDS011;66386;52.122;5.420;2023-02-03T10:42:26;6.45;;;0.98;;
71769;SDS011;66386;52.122;5.420;2023-02-03T10:45:15;8.75;;;0.80;;
71769;SDS011;66386;52.122;5.420;2023-02-03T10:47:43;6.90;;;0.73;;
71769;SDS011;66386;52.122;5.420;2023-02-03T10:50:14;6.22;;;0.98;;
71769;SDS011;66386;52.122;5.420;2023-02-03T10:52:42;8.00;;;1.00;;
71769;SDS011;66386;52.122;5.420;2023-02-03T10:57:51;6.43;;;0.82;;
71769;SDS011;66386;52.122;5.420;2023-02-03T11:03:06;5.20;;;1.45;;
71769;SDS011;66386;52.122;5.420;2023-02-03T11:05:47;3.23;;;0.63;;
71769;SDS011;66386;52.122;5.420;2023-02-03T11:08:40;7.88;;;1.27;;
71769;SDS011;66386;52.122;5.420;2023-02-03T11:11:12;6.53;;;0.75;;
71769;SDS011;66386;52.122;5.420;2023-02-03T11:13:40;4.15;;;0.65;;
71769;SDS011;66386;52.122;5.420;2023-02-03T11:16:12;6.57;;;0.95;;
71769;SDS011;66386;52.122;5.420;2023-02-03T11:26:48;5.53;;;0.63;;
71769;SDS011;66386;52.122;5.420;2023-02-03T11:29:24;6.45;;;0.90;;
71769;SDS011;66386;52.122;5.420;2023-02-03T11:31:54;7.00;;;1.03;;
71769;SDS011;66386;52.122;5.420;2023-02-03T11:34:33;5.68;;;0.93;;
71769;SDS011;66386;52.122;5.420;2023-02-03T11:37:37;4.20;;;0.60;;
71769;SDS011;66386;52.122;5.420;2023-02-03T11:42:32;4.32;;;0.50;;
71769;SDS011;66386;52.122;5.420;2023-02-03T11:45:13;7.23;;;0.90;;
71769;SDS011;66386;52.122;5.420;2023-02-03T11:47:46;5.20;;;0.70;;
71769;SDS011;66386;52.122;5.420;2023-02-03T11:50:34;5.53;;;0.82;;
71769;SDS011;66386;52.122;5.420;2023-02-03T11:53:17;4.10;;;0.60;;
71769;SDS011;66386;52.122;5.420;2023-02-03T12:15:55;4.20;;;0.73;;
71769;SDS011;66386;52.122;5.420;2023-02-03T12:18:44;3.65;;;0.60;;
71769;SDS011;66386;52.122;5.420;2023-02-03T12:21:41;1.90;;;0.60;;
71769;SDS011;66386;52.122;5.420;2023-02-03T12:24:44;4.70;;;0.60;;
71769;SDS011;66386;52.122;5.420;2023-02-03T12:27:21;7.83;;;0.70;;
71769;SDS011;66386;52.122;5.420;2023-02-03T12:29:54;4.07;;;0.77;;
71769;SDS011;66386;52.122;5.420;2023-02-03T12:32:35;6.13;;;1.00;;
71769;SDS011;66386;52.122;5.420;2023-02-03T12:35:16;7.10;;;0.73;;
71769;SDS011;66386;52.122;5.420;2023-02-03T12:40:57;8.03;;;0.90;;
71769;SDS011;66386;52.122;5.420;2023-02-03T12:43:48;5.30;;;0.82;;
71769;SDS011;66386;52.122;5.420;2023-02-03T12:46:19;10.43;;;1.45;;
71769;SDS011;66386;52.122;5.420;2023-02-03T12:48:55;3.67;;;0.93;;
71769;SDS011;66386;52.122;5.420;2023-02-03T12:51:50;7.15;;;1.25;;
71769;SDS011;66386;52.122;5.420;2023-02-03T12:57:15;5.85;;;1.08;;
71769;SDS011;66386;52.122;5.420;2023-02-03T12:59:58;8.23;;;2.10;;
71769;SDS011;66386;52.122;5.420;2023-02-03T13:02:34;7.55;;;1.48;;
71769;SDS011;66386;52.122;5.420;2023-02-03T13:05:21;7.32;;;1.30;;
71769;SDS011;66386;52.122;5.420;2023-02-03T13:08:04;6.00;;;1.03;;
71769;SDS011;66386;52.122;5.420;2023-02-03T13:10:45;4.60;;;1.25;;
71769;SDS011;66386;52.122;5.420;2023-02-03T13:13:16;6.63;;;1.00;;
71769;SDS011;66386;52.122;5.420;2023-02-03T13:15:51;8.68;;;1.20;;
71769;SDS011;66386;52.122;5.420;2023-02-03T13:18:27;6.35;;;1.17;;
71769;SDS011;66386;52.122;5.420;2023-02-03T13:20:58;7.27;;;1.30;;
71769;SDS011;66386;52.122;5.420;2023-02-03T13:23:25;7.80;;;1.08;;
71769;SDS011;66386;52.122;5.420;2023-02-03T13:36:25;6.32;;;0.88;;
71769;SDS011;66386;52.122;5.420;2023-02-03T13:42:23;10.85;;;1.33;;
71769;SDS011;66386;52.122;5.420;2023-02-03T13:44:58;8.43;;;1.40;;
71769;SDS011;66386;52.122;5.420;2023-02-03T13:47:34;10.97;;;1.70;;
71769;SDS011;66386;52.122;5.420;2023-02-03T13:50:05;13.63;;;1.40;;
71769;SDS011;66386;52.122;5.420;2023-02-03T13:53:24;6.75;;;1.30;;
71769;SDS011;66386;52.122;5.420;2023-02-03T13:55:41;7.95;;;1.13;;
71769;SDS011;66386;52.122;5.420;2023-02-03T13:58:19;9.32;;;1.65;;
71769;SDS011;66386;52.122;5.420;2023-02-03T14:03:39;16.08;;;1.70;;
71769;SDS011;66386;52.122;5.420;2023-02-03T14:15:16;14.13;;;1.63;;
71769;SDS011;66386;52.122;5.420;2023-02-03T14:22:57;9.05;;;1.80;;
71769;SDS011;66386;52.122;5.420;2023-02-03T14:25:32;11.20;;;1.70;;
71769;SDS011;66386;52.122;5.420;2023-02-03T14:28:06;12.07;;;1.97;;
71769;SDS011;66386;52.122;5.420;2023-02-03T14:33:36;15.35;;;1.85;;
71769;SDS011;66386;52.122;5.420;2023-02-03T14:38:52;10.40;;;1.63;;
71769;SDS011;66386;52.122;5.420;2023-02-03T14:44:24;11.90;;;1.48;;
71769;SDS011;66386;52.122;5.420;2023-02-03T15:08:28;10.23;;;1.47;;
71769;SDS011;66386;52.122;5.420;2023-02-03T15:10:57;13.02;;;1.73;;
71769;SDS011;66386;52.122;5.420;2023-02-03T15:13:31;13.57;;;1.73;;
71769;SDS011;66386;52.122;5.420;2023-02-03T15:15:58;20.23;;;2.10;;
71769;SDS011;66386;52.122;5.420;2023-02-03T15:18:29;15.40;;;1.35;;
71769;SDS011;66386;52.122;5.420;2023-02-03T15:20:57;11.17;;;2.70;;
71769;SDS011;66386;52.122;5.420;2023-02-03T15:23:25;12.15;;;1.45;;
71769;SDS011;66386;52.122;5.420;2023-02-03T15:25:58;18.33;;;1.90;;
71769;SDS011;66386;52.122;5.420;2023-02-03T15:28:29;12.05;;;2.50;;
71769;SDS011;66386;52.122;5.420;2023-02-03T15:33:32;13.73;;;1.30;;
71769;SDS011;66386;52.122;5.420;2023-02-03T15:36:05;15.93;;;1.80;;
71769;SDS011;66386;52.122;5.420;2023-02-03T15:38:39;15.20;;;1.35;;
71769;SDS011;66386;52.122;5.420;2023-02-03T15:41:16;11.93;;;1.63;;
71769;SDS011;66386;52.122;5.420;2023-02-03T15:43:48;17.83;;;1.10;;
71769;SDS011;66386;52.122;5.420;2023-02-03T15:49:02;15.60;;;2.08;;
71769;SDS011;66386;52.122;5.420;2023-02-03T15:51:41;9.25;;;1.10;;
71769;SDS011;66386;52.122;5.420;2023-02-03T15:54:35;10.48;;;1.30;;
71769;SDS011;66386;52.122;5.420;2023-02-03T15:57:44;9.73;;;1.33;;
71769;SDS011;66386;52.122;5.420;2023-02-03T16:02:53;7.05;;;1.33;;
71769;SDS011;66386;52.122;5.420;2023-02-03T16:05:24;16.67;;;2.05;;
71769;SDS011;66386;52.122;5.420;2023-02-03T16:07:53;10.40;;;2.00;;
71769;SDS011;66386;52.122;5.420;2023-02-03T16:10:28;10.75;;;1.17;;
71769;SDS011;66386;52.122;5.420;2023-02-03T16:16:06;10.60;;;1.30;;
71769;SDS011;66386;52.122;5.420;2023-02-03T16:18:47;17.98;;;1.60;;
71769;SDS011;66386;52.122;5.420;2023-02-03T16:21:33;18.75;;;2.13;;
71769;SDS011;66386;52.122;5.420;2023-02-03T16:24:03;12.40;;;1.63;;
71769;SDS011;66386;52.122;5.420;2023-02-03T16:26:31;15.93;;;2.03;;
71769;SDS011;66386;52.122;5.420;2023-02-03T16:31:47;22.65;;;2.22;;
71769;SDS011;66386;52.122;5.420;2023-02-03T16:34:33;15.07;;;1.23;;
71769;SDS011;66386;52.122;5.420;2023-02-03T16:37:28;19.05;;;1.48;;
71769;SDS011;66386;52.122;5.420;2023-02-03T16:40:26;11.43;;;1.93;;
71769;SDS011;66386;52.122;5.420;2023-02-03T16:43:12;10.70;;;1.52;;
71769;SDS011;66386;52.122;5.420;2023-02-03T16:45:58;16.17;;;1.60;;
71769;SDS011;66386;52.122;5.420;2023-02-03T16:48:44;13.23;;;1.05;;
71769;SDS011;66386;52.122;5.420;2023-02-03T16:51:34;17.08;;;1.75;;
71769;SDS011;66386;52.122;5.420;2023-02-03T16:54:04;14.37;;;1.47;;
71769;SDS011;66386;52.122;5.420;2023-02-03T16:56:32;14.15;;;1.55;;
71769;SDS011;66386;52.122;5.420;2023-02-03T16:58:58;12.57;;;2.05;;
71769;SDS011;66386;52.122;5.420;2023-02-03T17:01:25;9.90;;;1.33;;
71769;SDS011;66386;52.122;5.420;2023-02-03T17:03:51;10.15;;;1.75;;
71769;SDS011;66386;52.122;5.420;2023-02-03T17:06:17;10.73;;;1.70;;
71769;SDS011;66386;52.122;5.420;2023-02-03T17:08:45;8.38;;;1.48;;
71769;SDS011;66386;52.122;5.420;2023-02-03T17:11:16;14.43;;;1.75;;
71769;SDS011;66386;52.122;5.420;2023-02-03T17:13:45;11.25;;;1.90;;
71769;SDS011;66386;52.122;5.420;2023-02-03T17:16:13;15.63;;;2.10;;
71769;SDS011;66386;52.122;5.420;2023-02-03T17:18:42;15.37;;;2.10;;
71769;SDS011;66386;52.122;5.420;2023-02-03T17:21:10;14.27;;;2.28;;
71769;SDS011;66386;52.122;5.420;2023-02-03T17:23:38;15.05;;;1.83;;
71769;SDS011;66386;52.122;5.420;2023-02-03T17:26:05;14.30;;;2.95;;
71769;SDS011;66386;52.122;5.420;2023-02-03T17:28:32;13.80;;;2.10;;
71769;SDS011;66386;52.122;5.420;2023-02-03T17:31:03;14.20;;;1.70;;
71769;SDS011;66386;52.122;5.420;2023-02-03T17:33:32;10.32;;;1.77;;
71769;SDS011;66386;52.122;5.420;2023-02-03T17:36:00;14.45;;;1.98;;
71769;SDS011;66386;52.122;5.420;2023-02-03T17:38:30;14.73;;;1.73;;